createdAt,value
2023-04-23T00:01:19.332Z,100812.41
2023-04-23T00:03:46.928Z,100814.13
2023-04-23T00:06:14.562Z,100806.34
2023-04-23T00:08:42.328Z,100807.25
2023-04-23T00:11:10.297Z,100807.25
2023-04-23T00:13:37.872Z,100810.72
2023-04-23T00:16:05.407Z,100811.50
2023-04-23T00:18:32.702Z,100807.13
2023-04-23T00:20:59.811Z,100806.28
2023-04-23T00:23:26.839Z,100800.19
2023-04-23T00:25:54.013Z,100801.84
2023-04-23T00:28:22.346Z,100806.25
2023-04-23T00:30:49.592Z,100794.03
2023-04-23T00:33:17.196Z,100797.53
2023-04-23T00:35:44.931Z,100795.81
2023-04-23T00:38:12.132Z,100796.69
2023-04-23T00:40:39.215Z,100800.16
2023-04-23T00:43:07.458Z,100805.41
2023-04-23T00:45:34.825Z,100806.25
2023-04-23T00:48:03.124Z,100810.63
2023-04-23T00:50:30.100Z,100803.66
2023-04-23T00:52:57.153Z,100805.41
2023-04-23T00:55:24.373Z,100799.16
2023-04-23T00:57:52.433Z,100808.56
2023-04-23T01:00:20.516Z,100806.72
2023-04-23T01:05:18.295Z,100804.63
2023-04-23T01:07:46.841Z,100809.06
2023-04-23T01:10:14.442Z,100804.03
2023-04-23T01:12:42.166Z,100803.75
2023-04-23T01:15:10.048Z,100804.66
2023-04-23T01:17:37.327Z,100801.38
2023-04-23T01:20:06.745Z,100789.03
2023-04-23T01:22:37.032Z,100795.09
2023-04-23T01:25:05.032Z,100799.63
2023-04-23T01:27:33.391Z,100797.13
2023-04-23T01:30:03.841Z,100792.78
2023-04-23T01:32:32.055Z,100797.16
2023-04-23T01:35:00.050Z,100798.09
2023-04-23T01:37:27.770Z,100801.59
2023-04-23T01:39:54.904Z,100805.97
2023-04-23T01:42:23.522Z,100800.63
2023-04-23T01:44:53.724Z,100801.31
2023-04-23T01:47:21.437Z,100797.88
2023-04-23T01:49:48.590Z,100806.75
2023-04-23T01:52:15.738Z,100807.72
2023-04-23T01:54:42.932Z,100807.88
2023-04-23T01:57:10.884Z,100800.59
2023-04-23T01:59:38.696Z,100802.34
2023-04-23T02:02:05.925Z,100803.38
2023-04-23T02:04:34.285Z,100799.97
2023-04-23T02:07:01.419Z,100800.84
2023-04-23T02:09:28.388Z,100814.59
2023-04-23T02:11:55.452Z,100816.06
2023-04-23T02:14:22.498Z,100816.88
2023-04-23T02:16:51.667Z,100817.03
2023-04-23T02:19:18.825Z,100824.13
2023-04-23T02:21:45.809Z,100819.09
2023-04-23T02:24:12.902Z,100818.16
2023-04-23T02:26:39.839Z,100829.16
2023-04-23T02:29:06.795Z,100820.16
2023-04-23T02:31:33.937Z,100818.34
2023-04-23T02:34:01.356Z,100818.09
2023-04-23T02:36:31.194Z,100823.06
2023-04-23T02:38:58.166Z,100819.16
2023-04-23T02:41:25.187Z,100820.19
2023-04-23T02:43:52.388Z,100816.81
2023-04-23T02:46:19.371Z,100823.94
2023-04-23T02:48:46.871Z,100821.19
2023-04-23T02:51:14.618Z,100813.09
2023-04-23T02:53:41.760Z,100815.75
2023-04-23T02:56:08.917Z,100820.25
2023-04-23T02:58:36.237Z,100814.94
2023-04-23T03:01:04.067Z,100816.09
2023-04-23T03:03:32.603Z,100818.69
2023-04-23T03:06:02.930Z,100816.00
2023-04-23T03:08:30.020Z,100816.09
2023-04-23T03:10:57.190Z,100818.69
2023-04-23T03:13:25.212Z,100817.00
2023-04-23T03:15:53.080Z,100819.56
2023-04-23T03:18:20.801Z,100818.91
2023-04-23T03:20:51.646Z,100827.59
2023-04-23T03:23:18.998Z,100817.03
2023-04-23T03:25:47.643Z,100822.53
2023-04-23T03:28:14.666Z,100827.84
2023-04-23T03:30:41.796Z,100835.28
2023-04-23T03:33:09.656Z,100827.38
2023-04-23T03:35:37.388Z,100829.22
2023-04-23T03:38:08.813Z,100830.09
2023-04-23T03:40:36.942Z,100829.03
2023-04-23T03:43:06.502Z,100828.03
2023-04-23T03:46:08.996Z,100838.63
2023-04-23T03:48:39.927Z,100837.91
2023-04-23T03:51:12.386Z,100842.66
2023-04-23T03:53:45.759Z,100842.44
2023-04-23T03:56:31.296Z,100840.69
2023-04-23T03:59:18.559Z,100843.16
2023-04-23T04:01:50.436Z,100847.84
2023-04-23T04:04:18.945Z,100852.56
2023-04-23T04:06:46.385Z,100852.53
2023-04-23T04:09:13.381Z,100857.72
2023-04-23T04:11:41.229Z,100855.25
2023-04-23T04:14:09.351Z,100860.34
2023-04-23T04:16:36.342Z,100862.75
2023-04-23T04:19:03.681Z,100865.34
2023-04-23T04:21:32.310Z,100866.44
2023-04-23T04:24:01.773Z,100873.69
2023-04-23T04:26:29.807Z,100865.06
2023-04-23T04:28:58.523Z,100872.00
2023-04-23T04:31:28.334Z,100878.19
2023-04-23T04:33:55.843Z,100867.75
2023-04-23T04:36:25.406Z,100875.47
2023-04-23T04:38:53.992Z,100873.78
2023-04-23T04:41:21.853Z,100872.06
2023-04-23T04:43:49.135Z,100879.03
2023-04-23T04:46:16.213Z,100879.13
2023-04-23T04:48:43.296Z,100886.78
2023-04-23T04:51:10.414Z,100885.97
2023-04-23T04:53:37.412Z,100881.72
2023-04-23T04:56:04.602Z,100881.78
2023-04-23T04:58:31.962Z,100889.69
2023-04-23T05:00:59.744Z,100886.94
2023-04-23T05:03:27.311Z,100883.56
2023-04-23T05:05:58.904Z,100884.97
2023-04-23T05:08:26.050Z,100880.09
2023-04-23T05:10:54.453Z,100876.91
2023-04-23T05:13:22.052Z,100882.69
2023-04-23T05:15:49.095Z,100875.31
2023-04-23T05:18:16.130Z,100881.25
2023-04-23T05:20:43.347Z,100882.34
2023-04-23T05:23:10.336Z,100885.91
2023-04-23T05:25:37.335Z,100887.84
2023-04-23T05:28:04.455Z,100883.94
2023-04-23T05:30:31.671Z,100890.78
2023-04-23T05:32:58.709Z,100886.94
2023-04-23T05:35:25.874Z,100881.69
2023-04-23T05:37:52.905Z,100892.03
2023-04-23T05:40:19.898Z,100892.19
2023-04-23T05:42:47.037Z,100883.03
2023-04-23T05:45:14.107Z,100881.69
2023-04-23T05:47:41.064Z,100888.47
2023-04-23T05:50:08.472Z,100886.31
2023-04-23T05:52:37.626Z,100882.53
2023-04-23T05:55:05.235Z,100884.09
2023-04-23T05:57:32.252Z,100885.28
2023-04-23T05:59:59.308Z,100880.81
2023-04-23T06:02:26.593Z,100897.84
2023-04-23T06:04:53.852Z,100884.09
2023-04-23T06:07:21.140Z,100881.19
2023-04-23T06:09:48.152Z,100894.19
2023-04-23T06:12:15.080Z,100888.88
2023-04-23T06:14:42.524Z,100897.56
2023-04-23T06:17:09.903Z,100891.16
2023-04-23T06:19:37.019Z,100891.88
2023-04-23T06:22:04.124Z,100885.88
2023-04-23T06:24:31.469Z,100885.41
2023-04-23T06:26:58.780Z,100890.06
2023-04-23T06:29:27.106Z,100887.84
2023-04-23T06:32:02.698Z,100878.75
2023-04-23T06:34:29.675Z,100892.97
2023-04-23T06:36:56.821Z,100892.44
2023-04-23T06:39:24.052Z,100890.78
2023-04-23T06:41:51.065Z,100886.56
2023-04-23T06:44:22.785Z,100887.97
2023-04-23T06:46:52.673Z,100892.81
2023-04-23T06:49:19.704Z,100890.44
2023-04-23T06:51:46.740Z,100894.16
2023-04-23T06:54:13.711Z,100893.72
2023-04-23T06:56:40.669Z,100892.47
2023-04-23T06:59:07.958Z,100890.97
2023-04-23T07:01:42.953Z,100891.31
2023-04-23T07:04:09.968Z,100887.81
2023-04-23T07:06:37.108Z,100896.34
2023-04-23T07:09:04.676Z,100895.84
2023-04-23T07:11:34.997Z,100899.31
2023-04-23T07:14:02.208Z,100906.19
2023-04-23T07:16:33.614Z,100901.75
2023-04-23T07:19:04.028Z,100902.09
2023-04-23T07:21:31.284Z,100900.53
2023-04-23T07:24:07.002Z,100895.72
2023-04-23T07:26:35.531Z,100899.13
2023-04-23T07:29:04.735Z,100899.03
2023-04-23T07:31:31.777Z,100892.72
2023-04-23T07:33:58.889Z,100893.69
2023-04-23T07:36:26.530Z,100891.31
2023-04-23T07:38:53.716Z,100886.16
2023-04-23T07:41:20.722Z,100896.38
2023-04-23T07:43:47.907Z,100895.97
2023-04-23T07:46:15.160Z,100896.09
2023-04-23T07:48:43.734Z,100892.91
2023-04-23T07:51:10.782Z,100892.28
2023-04-23T07:53:37.793Z,100894.88
2023-04-23T07:56:04.849Z,100885.53
2023-04-23T07:58:33.430Z,100875.81
2023-04-23T08:01:00.684Z,100880.25
2023-04-23T08:03:29.334Z,100881.03
2023-04-23T08:05:56.985Z,100875.88
2023-04-23T08:08:24.066Z,100876.59
2023-04-23T08:10:51.148Z,100869.84
2023-04-23T08:13:18.283Z,100880.31
2023-04-23T08:15:45.599Z,100869.69
2023-04-23T08:18:12.711Z,100881.38
2023-04-23T08:20:39.665Z,100875.63
2023-04-23T08:23:07.309Z,100867.66
2023-04-23T08:25:34.850Z,100873.25
2023-04-23T08:28:02.447Z,100872.34
2023-04-23T08:30:29.497Z,100869.34
2023-04-23T08:32:57.480Z,100872.63
2023-04-23T08:35:24.940Z,100858.38
2023-04-23T08:37:51.924Z,100869.69
2023-04-23T08:40:19.111Z,100863.53
2023-04-23T08:42:59.026Z,100858.03
2023-04-23T08:45:28.986Z,100857.88
2023-04-23T08:48:01.992Z,100861.31
2023-04-23T08:50:31.200Z,100864.78
2023-04-23T08:52:58.595Z,100860.00
2023-04-23T08:55:26.280Z,100859.91
2023-04-23T08:57:53.380Z,100861.31
2023-04-23T09:00:23.379Z,100858.19
2023-04-23T09:02:51.005Z,100867.91
2023-04-23T09:05:18.690Z,100867.75
2023-04-23T09:07:45.996Z,100869.41
2023-04-23T09:10:16.094Z,100870.66
2023-04-23T09:12:45.333Z,100875.56
2023-04-23T09:15:13.539Z,100880.09
2023-04-23T09:17:45.332Z,100887.91
2023-04-23T09:20:13.884Z,100882.72
2023-04-23T09:22:48.132Z,100893.25
2023-04-23T09:25:20.392Z,100875.16
2023-04-23T09:27:50.891Z,100880.06
2023-04-23T09:30:19.440Z,100880.34
2023-04-23T09:32:47.595Z,100884.22
2023-04-23T09:35:17.029Z,100887.44
2023-04-23T09:37:49.593Z,100891.91
2023-04-23T09:40:20.931Z,100896.84
2023-04-23T09:42:56.081Z,100892.16
2023-04-23T09:45:26.777Z,100893.81
2023-04-23T09:47:56.678Z,100895.34
2023-04-23T09:50:37.018Z,100879.19
2023-04-23T09:53:07.306Z,100876.06
2023-04-23T09:55:38.874Z,100869.66
2023-04-23T09:58:15.244Z,100862.38
2023-04-23T10:00:42.734Z,100857.28
2023-04-23T10:03:11.202Z,100853.97
2023-04-23T10:08:14.788Z,100851.00
2023-04-23T10:13:12.642Z,100845.00
2023-04-23T10:15:39.920Z,100854.75
2023-04-23T10:18:08.184Z,100851.63
2023-04-23T10:20:37.855Z,100845.84
2023-04-23T10:23:06.109Z,100847.81
2023-04-23T10:25:33.909Z,100847.31
2023-04-23T10:28:02.936Z,100848.56
2023-04-23T10:30:30.877Z,100848.56
2023-04-23T10:33:01.793Z,100844.84
2023-04-23T10:35:29.343Z,100836.09
2023-04-23T10:37:56.715Z,100832.91
2023-04-23T10:40:32.484Z,100830.09
2023-04-23T10:43:00.907Z,100826.09
2023-04-23T10:45:32.327Z,100823.53
2023-04-23T10:47:59.692Z,100818.47
2023-04-23T10:50:28.762Z,100818.97
2023-04-23T10:52:58.030Z,100817.34
2023-04-23T10:55:28.443Z,100818.75
2023-04-23T10:58:02.220Z,100818.75
2023-04-23T11:00:52.329Z,100817.13
2023-04-23T11:03:43.223Z,100825.91
2023-04-23T11:06:19.330Z,100821.00
2023-04-23T11:08:52.781Z,100818.94
2023-04-23T11:11:38.963Z,100816.38
2023-04-23T11:14:14.495Z,100814.72
2023-04-23T11:16:41.790Z,100813.91
2023-04-23T11:19:12.682Z,100810.00
2023-04-23T11:22:01.737Z,100808.22
2023-04-23T11:24:34.131Z,100810.19
2023-04-23T11:27:01.490Z,100815.75
2023-04-23T11:29:29.322Z,100794.94
2023-04-23T11:34:27.435Z,100810.56
2023-04-23T11:36:55.314Z,100813.28
2023-04-23T11:39:24.368Z,100809.44
2023-04-23T11:41:52.831Z,100814.50
2023-04-23T11:44:23.294Z,100817.53
2023-04-23T11:46:50.738Z,100810.00
2023-04-23T11:49:19.594Z,100803.81
2023-04-23T11:51:47.151Z,100801.25
2023-04-23T11:54:14.968Z,100803.25
2023-04-23T11:56:42.599Z,100808.38
2023-04-23T11:59:09.870Z,100800.88
2023-04-23T12:01:57.004Z,100798.44
2023-04-23T12:04:30.239Z,100797.19
2023-04-23T12:06:58.434Z,100789.81
2023-04-23T12:09:28.458Z,100780.19
2023-04-23T12:11:58.498Z,100784.06
2023-04-23T12:14:31.215Z,100786.84
2023-04-23T12:17:08.888Z,100780.59
2023-04-23T12:19:36.636Z,100774.66
2023-04-23T12:22:04.612Z,100781.88
2023-04-23T12:24:46.674Z,100773.50
2023-04-23T12:27:20.489Z,100780.16
2023-04-23T12:29:51.437Z,100768.03
2023-04-23T12:32:23.062Z,100778.56
2023-04-23T12:34:55.482Z,100764.47
2023-04-23T12:37:27.133Z,100762.38
2023-04-23T12:39:56.804Z,100763.09
2023-04-23T12:42:24.485Z,100757.31
2023-04-23T12:44:52.181Z,100762.31
2023-04-23T12:47:22.182Z,100748.78
2023-04-23T12:49:53.782Z,100758.63
2023-04-23T12:52:21.256Z,100754.59
2023-04-23T12:54:52.328Z,100760.22
2023-04-23T12:57:23.501Z,100754.47
2023-04-23T12:59:50.887Z,100755.56
2023-04-23T13:02:18.174Z,100744.50
2023-04-23T13:04:45.278Z,100742.91
2023-04-23T13:07:12.409Z,100745.28
2023-04-23T13:09:39.533Z,100753.31
2023-04-23T13:12:06.609Z,100756.88
2023-04-23T13:14:33.767Z,100749.41
2023-04-23T13:17:01.122Z,100752.94
2023-04-23T13:19:28.346Z,100744.41
2023-04-23T13:21:55.498Z,100746.59
2023-04-23T13:24:22.539Z,100745.06
2023-04-23T13:26:49.630Z,100753.09
2023-04-23T13:29:16.582Z,100747.34
2023-04-23T13:31:43.815Z,100750.53
2023-04-23T13:34:11.002Z,100747.50
2023-04-23T13:36:41.524Z,100747.81
2023-04-23T13:39:10.192Z,100750.44
2023-04-23T13:41:38.103Z,100745.56
2023-04-23T13:44:05.186Z,100746.22
2023-04-23T13:46:32.718Z,100744.06
2023-04-23T13:49:01.231Z,100739.81
2023-04-23T13:51:35.276Z,100744.09
2023-04-23T13:54:03.753Z,100740.66
2023-04-23T13:56:31.880Z,100750.13
2023-04-23T14:01:35.332Z,100741.78
2023-04-23T14:04:04.479Z,100749.81
2023-04-23T14:06:32.090Z,100749.28
2023-04-23T14:08:59.106Z,100748.06
2023-04-23T14:11:26.152Z,100742.03
2023-04-23T14:13:54.323Z,100750.44
2023-04-23T14:16:21.390Z,100749.59
2023-04-23T14:18:48.420Z,100751.94
2023-04-23T14:21:16.429Z,100757.66
2023-04-23T14:23:57.409Z,100752.34
2023-04-23T14:29:34.912Z,100754.03
2023-04-23T14:32:02.213Z,100750.47
2023-04-23T14:34:29.539Z,100745.66
2023-04-23T14:36:56.647Z,100745.66
2023-04-23T14:39:24.547Z,100738.09
2023-04-23T14:41:51.630Z,100742.50
2023-04-23T14:44:18.808Z,100738.81
2023-04-23T14:46:45.990Z,100738.34
2023-04-23T14:49:12.967Z,100746.41
2023-04-23T14:51:39.980Z,100745.81
2023-04-23T14:54:07.362Z,100754.47
2023-04-23T14:56:34.436Z,100754.63
2023-04-23T14:59:02.326Z,100753.94
2023-04-23T15:01:32.219Z,100752.66
2023-04-23T15:03:59.643Z,100748.22
2023-04-23T15:06:26.818Z,100748.03
2023-04-23T15:08:53.826Z,100756.00
2023-04-23T15:11:21.063Z,100749.25
2023-04-23T15:14:03.907Z,100742.81
2023-04-23T15:19:10.212Z,100745.13
2023-04-23T15:21:37.631Z,100751.91
2023-04-23T15:24:04.858Z,100746.94
2023-04-23T15:26:33.851Z,100748.41
2023-04-23T15:29:01.028Z,100750.16
2023-04-23T15:31:28.060Z,100745.47
2023-04-23T15:33:55.152Z,100739.81
2023-04-23T15:36:22.232Z,100738.16
2023-04-23T15:38:49.228Z,100733.31
2023-04-23T15:41:16.283Z,100741.91
2023-04-23T15:43:43.315Z,100737.75
2023-04-23T15:46:10.746Z,100741.31
2023-04-23T15:48:37.771Z,100750.44
2023-04-23T15:51:04.975Z,100746.72
2023-04-23T15:53:32.050Z,100743.22
2023-04-23T15:55:59.079Z,100749.38
2023-04-23T15:58:26.261Z,100743.53
2023-04-23T16:00:53.440Z,100739.72
2023-04-23T16:03:21.471Z,100745.03
2023-04-23T16:05:51.081Z,100743.47
2023-04-23T16:08:18.133Z,100738.38
2023-04-23T16:10:45.200Z,100740.38
2023-04-23T16:13:12.224Z,100748.72
2023-04-23T16:15:39.209Z,100748.16
2023-04-23T16:18:06.707Z,100751.78
2023-04-23T16:20:33.967Z,100744.84
2023-04-23T16:23:02.055Z,100735.72
2023-04-23T16:25:29.087Z,100731.81
2023-04-23T16:27:56.338Z,100734.75
2023-04-23T16:30:23.953Z,100740.06
2023-04-23T16:32:51.263Z,100745.34
2023-04-23T16:35:18.386Z,100739.91
2023-04-23T16:37:45.788Z,100742.63
2023-04-23T16:40:15.328Z,100736.22
2023-04-23T16:42:43.479Z,100739.19
2023-04-23T16:45:11.133Z,100736.84
2023-04-23T16:47:38.583Z,100737.84
2023-04-23T16:50:06.338Z,100734.88
2023-04-23T16:52:33.377Z,100735.13
2023-04-23T16:55:00.481Z,100742.13
2023-04-23T16:57:28.218Z,100739.09
2023-04-23T16:59:55.213Z,100744.81
2023-04-23T17:02:22.237Z,100744.91
2023-04-23T17:04:49.631Z,100746.28
2023-04-23T17:07:17.246Z,100749.00
2023-04-23T17:09:44.361Z,100746.22
2023-04-23T17:12:11.453Z,100757.97
2023-04-23T17:14:38.602Z,100740.00
2023-04-23T17:17:05.619Z,100748.63
2023-04-23T17:19:33.131Z,100745.69
2023-04-23T17:22:01.150Z,100753.22
2023-04-23T17:24:28.146Z,100755.13
2023-04-23T17:26:55.124Z,100759.31
2023-04-23T17:29:22.110Z,100760.91
2023-04-23T17:31:49.347Z,100754.59
2023-04-23T17:34:16.491Z,100757.28
2023-04-23T17:36:43.531Z,100765.41
2023-04-23T17:39:10.520Z,100771.75
2023-04-23T17:41:38.265Z,100763.25
2023-04-23T17:44:05.325Z,100762.91
2023-04-23T17:46:32.616Z,100764.28
2023-04-23T17:49:00.249Z,100763.41
2023-04-23T17:51:27.530Z,100765.91
2023-04-23T17:53:54.920Z,100775.16
2023-04-23T17:56:22.288Z,100776.66
2023-04-23T17:58:49.365Z,100773.69
2023-04-23T18:01:17.827Z,100777.16
2023-04-23T18:03:45.150Z,100777.16
2023-04-23T18:06:13.056Z,100787.66
2023-04-23T18:08:42.511Z,100778.22
2023-04-23T18:11:09.760Z,100781.50
2023-04-23T18:13:36.894Z,100781.53
2023-04-23T18:16:04.092Z,100777.22
2023-04-23T18:18:31.092Z,100778.16
2023-04-23T18:20:58.407Z,100778.38
2023-04-23T18:23:26.324Z,100777.19
2023-04-23T18:25:53.655Z,100785.94
2023-04-23T18:28:21.526Z,100784.19
2023-04-23T18:30:48.784Z,100785.94
2023-04-23T18:33:16.713Z,100786.56
2023-04-23T18:35:47.259Z,100788.38
2023-04-23T18:38:39.169Z,100782.91
2023-04-23T18:41:06.363Z,100789.91
2023-04-23T18:43:34.315Z,100787.16
2023-04-23T18:46:02.245Z,100785.38
2023-04-23T18:48:35.653Z,100787.56
2023-04-23T18:51:27.565Z,100789.34
2023-04-23T18:53:54.712Z,100798.06
2023-04-23T18:56:22.002Z,100793.66
2023-04-23T18:58:48.936Z,100791.97
2023-04-23T19:01:16.696Z,100796.38
2023-04-23T19:03:43.877Z,100792.72
2023-04-23T19:06:11.003Z,100787.22
2023-04-23T19:08:38.355Z,100785.25
2023-04-23T19:11:05.419Z,100790.50
2023-04-23T19:13:32.464Z,100799.31
2023-04-23T19:16:00.024Z,100794.09
2023-04-23T19:18:27.791Z,100793.16
2023-04-23T19:20:54.943Z,100794.69
2023-04-23T19:23:22.347Z,100792.81
2023-04-23T19:25:49.360Z,100787.38
2023-04-23T19:28:16.403Z,100782.06
2023-04-23T19:30:43.448Z,100786.34
2023-04-23T19:33:10.700Z,100790.84
2023-04-23T19:35:40.101Z,100787.81
2023-04-23T19:38:07.728Z,100786.28
2023-04-23T19:40:35.170Z,100786.16
2023-04-23T19:43:02.388Z,100782.50
2023-04-23T19:45:30.204Z,100783.22
2023-04-23T19:47:57.629Z,100775.69
2023-04-23T19:50:26.503Z,100766.28
2023-04-23T19:52:53.576Z,100771.38
2023-04-23T19:55:22.608Z,100773.28
2023-04-23T19:57:49.616Z,100774.25
2023-04-23T20:00:17.156Z,100769.38
2023-04-23T20:02:44.349Z,100772.75
2023-04-23T20:05:11.565Z,100765.03
2023-04-23T20:07:39.317Z,100769.31
2023-04-23T20:10:07.118Z,100773.63
2023-04-23T20:12:34.930Z,100781.06
2023-04-23T20:15:02.361Z,100777.06
2023-04-23T20:17:33.010Z,100785.41
2023-04-23T20:20:02.062Z,100786.28
2023-04-23T20:22:30.006Z,100781.31
2023-04-23T20:24:58.100Z,100773.38
2023-04-23T20:27:28.719Z,100770.28
2023-04-23T20:29:55.899Z,100769.03
2023-04-23T20:32:22.938Z,100763.75
2023-04-23T20:34:49.994Z,100763.84
2023-04-23T20:37:21.641Z,100762.88
2023-04-23T20:39:49.990Z,100763.06
2023-04-23T20:42:17.176Z,100763.41
2023-04-23T20:44:47.075Z,100764.81
2023-04-23T20:47:16.483Z,100769.03
2023-04-23T20:49:43.832Z,100764.38
2023-04-23T20:52:12.508Z,100758.22
2023-04-23T20:54:39.544Z,100762.91
2023-04-23T20:57:07.074Z,100772.75
2023-04-23T20:59:34.490Z,100763.84
2023-04-23T21:02:01.571Z,100765.41
2023-04-23T21:04:28.769Z,100759.34
2023-04-23T21:06:56.338Z,100757.09
2023-04-23T21:09:23.690Z,100758.72
2023-04-23T21:11:51.248Z,100745.38
2023-04-23T21:14:18.413Z,100755.84
2023-04-23T21:16:45.420Z,100756.88
2023-04-23T21:19:12.435Z,100764.19
2023-04-23T21:21:39.465Z,100764.88
2023-04-23T21:24:06.674Z,100760.41
2023-04-23T21:26:33.800Z,100764.03
2023-04-23T21:29:00.836Z,100764.06
2023-04-23T21:31:38.871Z,100765.19
2023-04-23T21:34:05.969Z,100768.72
2023-04-23T21:36:33.011Z,100768.84
2023-04-23T21:39:00.100Z,100780.91
2023-04-23T21:41:27.149Z,100779.19
2023-04-23T21:43:54.222Z,100775.63
2023-04-23T21:46:23.805Z,100763.19
2023-04-23T21:48:53.778Z,100770.34
2023-04-23T21:51:22.482Z,100768.50
2023-04-23T21:53:49.541Z,100759.59
2023-04-23T21:56:17.467Z,100750.84
2023-04-23T21:58:44.947Z,100757.09
2023-04-23T22:01:12.096Z,100752.63
2023-04-23T22:03:42.822Z,100750.94
2023-04-23T22:06:09.971Z,100746.63
2023-04-23T22:08:40.561Z,100739.63
2023-04-23T22:11:08.474Z,100736.81
2023-04-23T22:13:36.209Z,100727.94
2023-04-23T22:16:06.587Z,100726.16
2023-04-23T22:18:38.381Z,100720.00
2023-04-23T22:21:05.452Z,100712.06
2023-04-23T22:23:32.564Z,100712.06
2023-04-23T22:25:59.540Z,100707.81
2023-04-23T22:28:26.581Z,100700.69
2023-04-23T22:30:53.819Z,100700.66
2023-04-23T22:33:21.187Z,100700.63
2023-04-23T22:35:48.236Z,100699.78
2023-04-23T22:38:15.847Z,100697.91
2023-04-23T22:40:43.069Z,100707.50
2023-04-23T22:43:10.124Z,100705.13
2023-04-23T22:45:37.182Z,100700.50
2023-04-23T22:48:04.400Z,100695.09
2023-04-23T22:50:31.437Z,100700.25
2023-04-23T22:52:58.430Z,100701.25
2023-04-23T22:55:25.659Z,100703.88
2023-04-23T22:57:52.695Z,100699.56
2023-04-23T23:00:19.818Z,100697.97
2023-04-23T23:02:47.038Z,100700.44
2023-04-23T23:05:14.274Z,100698.72
2023-04-23T23:07:41.370Z,100701.78
2023-04-23T23:10:08.964Z,100710.75
2023-04-23T23:12:37.009Z,100711.75
2023-04-23T23:15:04.292Z,100710.91
2023-04-23T23:17:31.423Z,100711.75
2023-04-23T23:19:58.533Z,100712.63
2023-04-23T23:22:27.154Z,100712.66
2023-04-23T23:24:54.921Z,100707.41
2023-04-23T23:27:21.944Z,100705.66
2023-04-23T23:29:48.888Z,100703.91
2023-04-23T23:32:16.198Z,100712.66
2023-04-23T23:34:43.269Z,100709.16
2023-04-23T23:37:11.206Z,100703.91
2023-04-23T23:39:38.370Z,100700.41
2023-04-23T23:42:05.388Z,100699.47
2023-04-23T23:44:32.911Z,100697.69
2023-04-23T23:47:00.481Z,100692.44
2023-04-23T23:49:27.622Z,100691.59
2023-04-23T23:51:54.783Z,100688.13
2023-04-23T23:54:21.818Z,100683.75
2023-04-23T23:56:48.786Z,100682.88
2023-04-23T23:59:15.814Z,100681.13
